• Join FlightAware (Why Join?)
  • Login
  • US Flag 
08:43AM EDT


 

Airport Tracker/Info


-or-


 

Live Flight TrackerFlight Track Log ✈ N1576C ✈ 29-Oct-2013 ✈ KFXE - KVNC

Flight Track Log - Related Links

Times and Time Zones

All times are in EDT time to prevent confusion due to time zone crossing. See the N1576C flight status page for this flight to view local times or setup timezone preferences in your user account.

Time Position Orientation Groundspeed Altitude Reporting Facility
EDT Latitude Longitude Course Direction KTS MPH feet Rate Location/Type
11:23AM 26.3992 -80.6372 290° West 92 106 8,000  Level Miami Center
11:24AM 26.4089 -80.6678 290° West 105 121 7,600 -600 Descending Miami Center
11:25AM 26.4264 -80.7078 296° West 123 142 6,800 -600 Descending Miami Center
11:26AM 26.4383 -80.7383 294° West 123 142 6,500 -180 Descending Miami Center
11:27AM 26.4519 -80.7711 295° West 118 136 6,500  Level Miami Center
11:28AM 26.4617 -80.7969 293° West 107 123 6,500  Level Miami Center
11:29AM 26.4733 -80.8322 290° West 112 129 6,500  Level Miami Center
11:30AM 26.4831 -80.8581 293° West 112 129 6,600  Climbing Miami Center
11:31AM 26.4967 -80.8908 295° West 112 129 6,600 -60 Level Miami Center
11:32AM 26.5106 -80.9194 298° West 118 136 6,500 -60 Descending Miami Center
11:33AM 26.5242 -80.9569 292° West 113 130 6,500  Level Miami Center
11:34AM 26.5339 -80.9850 291° West 113 130 6,500  Level Miami Center
11:35AM 26.5475 -81.0158 296° West 113 130 6,500  Level Miami Center
11:36AM 26.5592 -81.0486 292° West 113 130 6,600  Climbing Miami Center
11:37AM 26.5708 -81.0792 293° West 113 130 6,600  Level Miami Center
11:38AM 26.5803 -81.1122 288° West 113 130 6,600  Level Miami Center
11:39AM 26.5919 -81.1428 293° West 113 130 6,600  Level Miami Center
11:40AM 26.6036 -81.1711 295° West 113 130 6,600  Level Miami Center
11:41AM 26.6150 -81.2039 291° West 113 130 6,600  Level Miami Center
11:42AM 26.6267 -81.2347 293° West 113 130 6,600  Level Miami Center
11:43AM 26.6364 -81.2606 293° West 108 124 6,600  Level Miami Center
11:44AM 26.6481 -81.2911 293° West 108 124 6,600  Level Miami Center
11:45AM 26.6617 -81.3219 296° West 113 130 6,600  Level Miami Center
11:47AM 26.6812 -81.3763 292° West  Level FlightAware Approximate
11:54AM 26.7684 -81.6194 292° West  Level FlightAware Approximate
11:55AM 26.7808 -81.6541 292° West  Level FlightAware Approximate
11:56AM 26.7933 -81.6889 292° West  Level FlightAware Approximate
11:57AM 26.8057 -81.7236 292° West  Level FlightAware Approximate
11:58AM 26.8181 -81.7584 292° West  Level FlightAware Approximate
11:59AM 26.8305 -81.7932 292° West  Level FlightAware Approximate
12:00PM 26.8428 -81.8280 292° West  Level FlightAware Approximate
12:01PM 26.8552 -81.8628 292° West  Level FlightAware Approximate
12:02PM 26.8676 -81.8976 292° West  Level FlightAware Approximate
12:03PM 26.8799 -81.9324 292° West  Level FlightAware Approximate
12:04PM 26.8923 -81.9673 292° West  Level FlightAware Approximate
12:05PM 26.9046 -82.0021 292° West  Level FlightAware Approximate
12:06PM 26.9169 -82.0369 292° West  Level FlightAware Approximate
12:07PM 26.9293 -82.0718 292° West  Level FlightAware Approximate
12:08PM 26.9445 -82.1057 299° West  Level FlightAware Approximate
12:09PM 26.9578 -82.1400 291° West  Level FlightAware Approximate
12:10PM 26.9695 -82.1751 291° West  Level FlightAware Approximate
12:11PM 26.9812 -82.2103 291° West  Level FlightAware Approximate
12:12PM 26.9907 -82.2462 286° West  Level FlightAware Approximate
12:13PM 26.9998 -82.2823 286° West  Level FlightAware Approximate
12:14PM 27.0159 -82.3151 299° West  Level FlightAware Approximate
12:15PM 27.0323 -82.3478 299° West  Level FlightAware Approximate
12:16PM 27.0461 -82.3820 294° West  Level FlightAware Approximate
12:17PM 27.0598 -82.4162 294° West  Level FlightAware Approximate
12:18PM 27.0667 -82.4333 294° West  Level FlightAware Approximate
12:19PM 27.0716 -82.4403 294° West  Level Estimated
12:20PM 27.0716 -82.4403 294° West  Level Estimated
12:21PM 27.0716 -82.4403 294° West  Level Estimated